Time;durP1;ratioP1;P1;durP2;ratioP2;P2;SDS_P1;SDS_P2;PMS_P1;PMS_P2;Temp;Humidity;BMP_temperature;BMP_pressure;BME280_temperature;BME280_humidity;BME280_pressure;Samples;Min_cycle;Max_cycle;Signal;HPM_P1;HPM_P2
2022/08/20 00:01:00;;;;;;;4.85;0.90;;;15.70;99.90;;;;;;4982532;28;20031;-59
2022/08/20 00:03:38;;;;;;;5.43;0.90;;;15.60;99.90;;;;;;4974121;28;20033;-59
2022/08/20 00:06:06;;;;;;;4.65;0.90;;;15.60;99.90;;;;;;4971036;28;20371;-62
2022/08/20 00:08:32;;;;;;;6.60;0.93;;;15.50;99.90;;;;;;4973450;28;20031;-58
2022/08/20 00:10:59;;;;;;;5.93;0.88;;;15.50;99.90;;;;;;4969893;28;20065;-58
2022/08/20 00:13:37;;;;;;;6.30;0.70;;;15.40;99.90;;;;;;4967686;28;20031;-58
2022/08/20 00:16:04;;;;;;;7.75;1.20;;;15.40;99.90;;;;;;4968830;28;20042;-58
2022/08/20 00:18:30;;;;;;;4.50;0.70;;;15.40;99.90;;;;;;4966546;28;20035;-58
2022/08/20 00:20:57;;;;;;;6.97;1.55;;;15.40;99.90;;;;;;4972875;28;20550;-59
2022/08/20 00:23:23;;;;;;;4.18;0.55;;;15.50;99.90;;;;;;4974267;28;20030;-59
2022/08/20 00:25:50;;;;;;;6.30;0.88;;;15.50;99.90;;;;;;4972673;28;20093;-59
2022/08/20 00:28:16;;;;;;;3.97;0.80;;;15.50;99.90;;;;;;4973723;28;20018;-59
2022/08/20 00:30:44;;;;;;;5.50;1.05;;;15.60;99.90;;;;;;4972458;28;20380;-59
2022/08/20 00:33:18;;;;;;;5.18;1.00;;;15.60;99.90;;;;;;4973319;28;20035;-58
2022/08/20 00:35:50;;;;;;;4.70;0.80;;;15.60;99.90;;;;;;4971117;28;20043;-57
2022/08/20 00:38:16;;;;;;;;;;;15.60;99.90;;;;;;4973615;28;20452;-58
2022/08/20 00:40:46;;;;;;;7.05;1.00;;;15.60;99.90;;;;;;4972209;28;20005;-58
2022/08/20 00:43:36;;;;;;;3.47;0.52;;;15.60;99.90;;;;;;4972566;28;20860;-58
2022/08/20 00:46:26;;;;;;;5.97;0.70;;;15.60;99.90;;;;;;4973555;28;20062;-58
2022/08/20 00:48:54;;;;;;;6.85;1.00;;;15.70;99.90;;;;;;4972390;28;20082;-58
2022/08/20 00:51:40;;;;;;;4.90;0.98;;;15.70;99.90;;;;;;4973246;28;20019;-59
2022/08/20 00:54:06;;;;;;;7.78;0.88;;;15.70;99.90;;;;;;4971941;28;20039;-58
2022/08/20 00:56:32;;;;;;;5.68;0.68;;;15.60;99.90;;;;;;4971070;28;20026;-59
2022/08/20 00:58:59;;;;;;;5.40;0.60;;;15.50;99.90;;;;;;4973975;28;20411;-58
2022/08/20 01:01:25;;;;;;;1.42;0.60;;;15.40;99.90;;;;;;4973915;28;20097;-58
2022/08/20 01:03:55;;;;;;;5.38;0.55;;;15.40;99.90;;;;;;4971124;28;20194;-58
2022/08/20 01:06:23;;;;;;;2.13;0.52;;;15.30;99.90;;;;;;4973646;28;20641;-58
2022/08/20 01:08:49;;;;;;;7.97;1.20;;;15.10;99.90;;;;;;4971827;28;20030;-58
2022/08/20 01:11:16;;;;;;;11.45;1.05;;;15.10;99.90;;;;;;4971140;28;20027;-58
2022/08/20 01:13:44;;;;;;;7.07;1.42;;;15.10;99.90;;;;;;4971483;28;20038;-57
2022/08/20 01:16:28;;;;;;;5.18;0.60;;;15.10;99.90;;;;;;4973753;28;20031;-58
2022/08/20 01:18:56;;;;;;;5.18;0.68;;;15.20;99.90;;;;;;4966555;28;20030;-58
2022/08/20 01:21:26;;;;;;;3.63;0.70;;;15.20;99.90;;;;;;4973374;28;20034;-58
2022/08/20 01:24:07;;;;;;;6.65;0.95;;;15.10;99.90;;;;;;4971773;28;20070;-58
2022/08/20 01:26:46;;;;;;;5.05;0.45;;;15.20;99.90;;;;;;4964775;28;20095;-58
2022/08/20 01:29:36;;;;;;;6.15;1.00;;;15.10;99.90;;;;;;4972648;28;20089;-57
2022/08/20 01:32:03;;;;;;;3.45;1.00;;;15.00;99.90;;;;;;4966025;28;20031;-58
2022/08/20 01:34:29;;;;;;;6.75;0.77;;;14.90;99.90;;;;;;4971454;28;20053;-57
2022/08/20 01:36:56;;;;;;;4.35;0.57;;;14.70;99.90;;;;;;4972927;28;20406;-58
2022/08/20 01:39:29;;;;;;;6.10;0.60;;;14.60;99.90;;;;;;4973029;28;20058;-58
2022/08/20 01:42:30;;;;;;;3.45;0.75;;;14.50;99.90;;;;;;4971292;28;20520;-58
2022/08/20 01:44:55;;;;;;;4.40;0.80;;;14.50;99.90;;;;;;4960995;28;20406;-57
2022/08/20 01:47:26;;;;;;;6.18;1.15;;;14.40;99.90;;;;;;4973050;28;20035;-58
2022/08/20 01:49:59;;;;;;;6.20;1.00;;;14.40;99.90;;;;;;4969116;28;20027;-58
2022/08/20 01:52:50;;;;;;;4.35;0.70;;;14.50;99.90;;;;;;4970357;28;20038;-58
2022/08/20 01:55:16;;;;;;;4.47;1.10;;;14.60;99.90;;;;;;4968427;28;20042;-59
2022/08/20 01:57:42;;;;;;;4.47;0.52;;;14.70;99.90;;;;;;4970633;28;20038;-58
2022/08/20 02:00:12;;;;;;;5.65;1.83;;;14.70;99.90;;;;;;4971818;28;20081;-58
2022/08/20 02:02:38;;;;;;;6.03;0.73;;;14.70;99.90;;;;;;4970259;28;20015;-57
2022/08/20 02:05:04;;;;;;;5.03;0.80;;;14.60;99.90;;;;;;4972198;28;20030;-58
2022/08/20 02:07:31;;;;;;;5.43;0.70;;;14.60;99.90;;;;;;4970859;28;20070;-58
2022/08/20 02:09:57;;;;;;;6.63;1.77;;;14.50;99.90;;;;;;4971696;28;20070;-57
2022/08/20 02:12:23;;;;;;;4.60;0.70;;;14.50;99.90;;;;;;4970543;28;20367;-56
2022/08/20 02:14:52;;;;;;;6.18;0.98;;;14.50;99.90;;;;;;4970786;28;20940;-57
2022/08/20 02:17:21;;;;;;;2.75;0.60;;;14.50;99.90;;;;;;4965895;28;20031;-57
2022/08/20 02:19:51;;;;;;;12.75;0.88;;;14.40;99.90;;;;;;4970345;28;20039;-58
2022/08/20 02:22:35;;;;;;;3.33;1.02;;;14.40;99.90;;;;;;4971099;28;20042;-57
2022/08/20 02:25:04;;;;;;;4.72;0.98;;;14.40;99.90;;;;;;4972380;28;20038;-57
2022/08/20 02:27:30;;;;;;;2.92;0.60;;;14.40;99.90;;;;;;4965116;28;20391;-57
2022/08/20 02:29:55;;;;;;;3.65;0.70;;;14.30;99.90;;;;;;4963544;28;20073;-58
2022/08/20 02:32:21;;;;;;;5.15;0.68;;;14.30;99.90;;;;;;4969957;28;20077;-58
2022/08/20 02:34:48;;;;;;;4.05;0.70;;;14.20;99.90;;;;;;4963252;28;20465;-61
2022/08/20 02:37:17;;;;;;;2.28;0.82;;;14.10;99.90;;;;;;4972016;28;20042;-58
2022/08/20 02:39:43;;;;;;;7.38;0.65;;;14.00;99.90;;;;;;4965267;28;20030;-58
2022/08/20 02:42:11;;;;;;;3.38;0.70;;;13.90;99.90;;;;;;4966504;28;20031;-56
2022/08/20 02:44:38;;;;;;;5.97;0.65;;;13.80;99.90;;;;;;4969184;28;20031;-57
2022/08/20 02:47:04;;;;;;;8.50;1.50;;;13.70;99.90;;;;;;4966469;28;20024;-57
2022/08/20 02:49:30;;;;;;;3.90;0.60;;;13.60;99.90;;;;;;4969243;28;20035;-58
2022/08/20 02:51:56;;;;;;;4.57;0.60;;;13.60;99.90;;;;;;4970760;28;20022;-57
2022/08/20 02:54:22;;;;;;;4.35;0.55;;;13.50;99.90;;;;;;4971112;28;20057;-58
2022/08/20 02:56:47;;;;;;;2.55;0.45;;;13.50;99.90;;;;;;4968714;28;20513;-58
2022/08/20 02:59:13;;;;;;;3.92;0.90;;;13.50;99.90;;;;;;4971916;28;20089;-58
2022/08/20 03:01:39;;;;;;;6.60;1.10;;;13.40;99.90;;;;;;4969861;28;20453;-57
2022/08/20 03:04:05;;;;;;;6.95;0.90;;;13.30;99.90;;;;;;4969388;28;20086;-57
2022/08/20 03:06:31;;;;;;;3.42;0.90;;;13.30;99.90;;;;;;4969382;28;20093;-58
2022/08/20 03:08:56;;;;;;;3.00;0.65;;;13.30;99.90;;;;;;4971258;28;20427;-57
2022/08/20 03:11:22;;;;;;;3.20;0.55;;;13.30;99.90;;;;;;4970768;28;20414;-59
2022/08/20 03:13:48;;;;;;;7.38;1.17;;;13.30;99.90;;;;;;4969631;28;20093;-58
2022/08/20 03:16:14;;;;;;;4.78;1.02;;;13.30;99.90;;;;;;4971226;28;20035;-58
2022/08/20 03:18:43;;;;;;;4.00;0.63;;;13.30;99.90;;;;;;4969435;28;20162;-58
2022/08/20 03:21:09;;;;;;;5.10;1.10;;;13.40;99.90;;;;;;4969168;28;20054;-58
2022/08/20 03:23:36;;;;;;;5.13;0.90;;;13.40;99.90;;;;;;4969537;28;20023;-58
2022/08/20 03:26:04;;;;;;;2.90;0.93;;;13.30;99.90;;;;;;4970282;28;20037;-58
2022/08/20 03:28:30;;;;;;;7.38;0.95;;;13.30;99.90;;;;;;4971345;28;20026;-60
2022/08/20 03:30:58;;;;;;;5.40;0.60;;;13.30;99.90;;;;;;4976787;28;20026;-58
2022/08/20 03:33:25;;;;;;;5.40;0.70;;;13.30;99.90;;;;;;4977667;28;20085;-59
2022/08/20 03:35:51;;;;;;;8.13;1.83;;;13.20;99.90;;;;;;4973548;28;20034;-57
2022/08/20 03:38:19;;;;;;;3.40;0.88;;;13.10;99.90;;;;;;4977992;28;20027;-58
2022/08/20 03:40:44;;;;;;;4.68;1.00;;;13.20;99.90;;;;;;4978477;28;20033;-58
2022/08/20 03:43:11;;;;;;;2.88;0.80;;;13.10;99.90;;;;;;4970704;28;20026;-58
2022/08/20 03:45:40;;;;;;;3.85;1.20;;;13.10;99.90;;;;;;4980532;28;20034;-58
2022/08/20 03:48:08;;;;;;;7.00;0.85;;;13.10;99.90;;;;;;4974475;28;20038;-59
2022/08/20 03:50:34;;;;;;;5.88;0.98;;;13.10;99.90;;;;;;4971057;28;20027;-58
2022/08/20 03:53:00;;;;;;;9.20;1.02;;;13.00;99.90;;;;;;4973701;28;20453;-58
2022/08/20 03:55:28;;;;;;;6.22;1.15;;;13.10;99.90;;;;;;4971932;28;20054;-58
2022/08/20 03:57:57;;;;;;;5.63;0.98;;;13.10;99.90;;;;;;4970476;28;20027;-58
2022/08/20 04:00:50;;;;;;;6.95;0.80;;;13.00;99.90;;;;;;4975285;28;20118;-58
2022/08/20 04:03:16;;;;;;;7.00;0.88;;;13.00;99.90;;;;;;4967173;28;20035;-57
2022/08/20 04:05:43;;;;;;;5.45;1.05;;;12.90;99.90;;;;;;4970940;28;20121;-58
2022/08/20 04:08:31;;;;;;;5.45;0.82;;;12.90;99.90;;;;;;4979014;28;20084;-58
2022/08/20 04:10:58;;;;;;;5.78;1.00;;;12.90;99.90;;;;;;4971494;28;20379;-57
2022/08/20 04:13:24;;;;;;;3.50;0.70;;;12.90;99.90;;;;;;4975546;28;20371;-58
2022/08/20 04:15:54;;;;;;;4.68;1.73;;;12.90;99.90;;;;;;4975808;28;20042;-60
2022/08/20 04:18:23;;;;;;;4.90;1.63;;;12.80;99.90;;;;;;4977615;28;20114;-59
2022/08/20 04:20:50;;;;;;;4.85;0.70;;;12.60;99.90;;;;;;4973405;28;20326;-58
2022/08/20 04:23:16;;;;;;;5.22;0.70;;;12.50;99.90;;;;;;4973879;28;20069;-58
2022/08/20 04:25:43;;;;;;;9.93;0.90;;;12.50;99.90;;;;;;4968041;28;20368;-58
2022/08/20 04:28:20;;;;;;;5.68;0.70;;;12.50;99.90;;;;;;4970135;28;20026;-58
2022/08/20 04:30:46;;;;;;;4.00;0.73;;;12.50;99.90;;;;;;4967478;28;20487;-59
2022/08/20 04:33:11;;;;;;;8.75;0.98;;;12.40;99.90;;;;;;4970300;28;20113;-58
2022/08/20 04:35:37;;;;;;;7.00;0.90;;;12.40;99.90;;;;;;4967077;28;20042;-59
2022/08/20 04:38:06;;;;;;;5.93;0.60;;;12.40;99.90;;;;;;4966711;28;20020;-59
2022/08/20 04:43:19;;;;;;;3.47;0.80;;;12.50;99.90;;;;;;4967946;28;20030;-59
2022/08/20 04:45:46;;;;;;;5.88;0.70;;;12.50;99.90;;;;;;4968655;28;20027;-58
2022/08/20 04:48:12;;;;;;;2.50;0.63;;;12.50;99.90;;;;;;4970268;28;20027;-58
2022/08/20 04:50:40;;;;;;;5.80;0.50;;;12.50;99.90;;;;;;4966771;28;20026;-58
2022/08/20 04:53:09;;;;;;;5.90;1.67;;;12.40;99.90;;;;;;4969955;28;20482;-58
2022/08/20 04:55:38;;;;;;;3.10;0.50;;;12.40;99.90;;;;;;4966849;28;20038;-58
2022/08/20 04:58:10;;;;;;;4.43;1.02;;;12.50;99.90;;;;;;4969832;28;20050;-58
2022/08/20 05:00:37;;;;;;;5.57;0.80;;;12.50;99.90;;;;;;4960252;28;20054;-58
2022/08/20 05:03:05;;;;;;;3.33;1.10;;;12.60;99.90;;;;;;4970044;28;20483;-58
2022/08/20 05:05:34;;;;;;;6.85;0.93;;;12.60;99.90;;;;;;4967668;28;20030;-58
2022/08/20 05:08:00;;;;;;;5.00;1.92;;;12.60;99.90;;;;;;4970554;28;20031;-58
2022/08/20 05:10:26;;;;;;;5.20;0.90;;;12.60;99.90;;;;;;4972524;28;20077;-58
2022/08/20 05:12:52;;;;;;;4.38;1.00;;;12.60;99.90;;;;;;4971786;28;20413;-58
2022/08/20 05:15:19;;;;;;;8.70;1.23;;;12.70;99.90;;;;;;4972340;28;20035;-57
2022/08/20 05:17:45;;;;;;;6.07;1.25;;;12.70;99.90;;;;;;4972005;28;20019;-58
2022/08/20 05:20:15;;;;;;;6.22;0.63;;;12.80;99.90;;;;;;4972371;28;20034;-58
2022/08/20 05:22:41;;;;;;;4.43;1.08;;;12.80;99.90;;;;;;4971712;28;20391;-58
2022/08/20 05:25:08;;;;;;;3.78;0.80;;;13.00;99.90;;;;;;4972999;28;20071;-58
2022/08/20 05:27:34;;;;;;;6.97;0.93;;;13.30;99.90;;;;;;4966854;28;20030;-58
2022/08/20 05:30:10;;;;;;;4.93;1.15;;;13.40;99.90;;;;;;4973208;28;20106;-58
2022/08/20 05:32:37;;;;;;;4.50;0.80;;;13.30;99.90;;;;;;4969704;28;20039;-58
2022/08/20 05:35:06;;;;;;;10.35;1.63;;;13.20;99.90;;;;;;4972230;28;20130;-58
2022/08/20 05:37:34;;;;;;;4.32;1.02;;;13.20;99.90;;;;;;4969029;28;20031;-58
2022/08/20 05:39:59;;;;;;;7.38;0.85;;;13.10;99.90;;;;;;4972763;28;20038;-58
2022/08/20 05:42:27;;;;;;;2.22;0.90;;;13.10;99.90;;;;;;4970552;28;20133;-58
2022/08/20 05:44:53;;;;;;;3.80;0.93;;;13.00;99.90;;;;;;4971119;28;20031;-58
2022/08/20 05:47:20;;;;;;;5.85;0.90;;;13.00;99.90;;;;;;4972199;28;20471;-58
2022/08/20 05:49:46;;;;;;;6.43;0.80;;;13.10;99.90;;;;;;4971316;28;20043;-58
2022/08/20 05:52:12;;;;;;;5.35;0.95;;;13.10;99.90;;;;;;4972144;28;20030;-58
2022/08/20 05:54:38;;;;;;;6.75;1.08;;;13.10;99.90;;;;;;4968385;28;20042;-58
2022/08/20 05:57:04;;;;;;;4.15;1.20;;;13.10;99.90;;;;;;4969955;28;20038;-59
2022/08/20 05:59:30;;;;;;;3.72;0.90;;;13.10;99.90;;;;;;4971688;28;20027;-58
2022/08/20 06:01:55;;;;;;;5.35;1.42;;;13.00;99.90;;;;;;4971127;28;20097;-58
2022/08/20 06:04:24;;;;;;;5.60;1.08;;;13.20;99.90;;;;;;4971961;28;20027;-58
2022/08/20 06:06:51;;;;;;;5.65;0.85;;;13.10;99.90;;;;;;4969980;28;20035;-59
2022/08/20 06:09:22;;;;;;;6.03;1.10;;;13.20;99.90;;;;;;4970818;28;20034;-58
2022/08/20 06:11:48;;;;;;;6.35;2.08;;;13.30;99.90;;;;;;4969029;28;20026;-57
2022/08/20 06:14:15;;;;;;;7.85;1.50;;;13.30;99.90;;;;;;4971424;28;20088;-58
2022/08/20 06:16:41;;;;;;;7.50;1.27;;;13.40;99.90;;;;;;4969766;28;20031;-57
2022/08/20 06:19:07;;;;;;;9.05;1.45;;;13.50;99.90;;;;;;4971556;28;20045;-58
2022/08/20 06:21:32;;;;;;;5.97;1.10;;;13.50;99.90;;;;;;4970269;28;20466;-58
2022/08/20 06:23:58;;;;;;;6.47;1.10;;;13.60;99.90;;;;;;4972389;28;20027;-57
2022/08/20 06:26:24;;;;;;;8.30;1.65;;;13.80;99.90;;;;;;4969053;28;20078;-58
2022/08/20 06:28:50;;;;;;;8.65;1.40;;;14.00;99.90;;;;;;4968913;28;20507;-58
2022/08/20 06:31:15;;;;;;;6.40;1.65;;;14.10;99.90;;;;;;4978770;28;20054;-59
2022/08/20 06:33:41;;;;;;;4.32;0.98;;;14.20;99.90;;;;;;4977990;28;20057;-59
2022/08/20 06:36:07;;;;;;;10.65;1.50;;;14.30;99.90;;;;;;4971916;28;20077;-58
2022/08/20 06:38:33;;;;;;;8.95;2.20;;;14.50;99.90;;;;;;4969256;28;20117;-58
2022/08/20 06:40:58;;;;;;;6.55;0.93;;;14.60;99.90;;;;;;4982796;28;20139;-59
2022/08/20 06:43:24;;;;;;;5.75;0.75;;;14.70;99.90;;;;;;4975757;28;20027;-58
2022/08/20 06:45:51;;;;;;;7.82;1.35;;;14.90;99.90;;;;;;4981204;28;20462;-58
2022/08/20 06:48:17;;;;;;;5.55;0.90;;;15.10;99.90;;;;;;4973185;28;20026;-58
2022/08/20 06:50:45;;;;;;;13.75;0.90;;;15.30;99.90;;;;;;4978270;28;20090;-58
2022/08/20 06:53:14;;;;;;;4.28;1.10;;;15.40;99.90;;;;;;4981259;28;20479;-60
2022/08/20 06:55:43;;;;;;;4.45;1.02;;;15.60;99.90;;;;;;4970711;28;20042;-59
2022/08/20 06:58:11;;;;;;;5.72;1.10;;;15.80;99.90;;;;;;4972684;28;20023;-58
2022/08/20 07:00:39;;;;;;;10.77;1.20;;;16.00;99.90;;;;;;4974840;28;20030;-58
2022/08/20 07:03:05;;;;;;;10.38;2.05;;;16.30;99.90;;;;;;4979349;28;20037;-58
2022/08/20 07:05:37;;;;;;;8.30;1.13;;;16.60;99.90;;;;;;4970324;28;20031;-58
2022/08/20 07:08:03;;;;;;;8.75;1.00;;;16.90;99.90;;;;;;4977715;28;20061;-58
2022/08/20 07:10:30;;;;;;;10.57;1.20;;;17.10;99.90;;;;;;4974573;28;20104;-59
2022/08/20 07:12:58;;;;;;;6.93;1.98;;;17.30;99.90;;;;;;4977123;28;20054;-59
2022/08/20 07:15:27;;;;;;;6.70;0.80;;;17.40;99.90;;;;;;4975784;28;20043;-59
2022/08/20 07:17:56;;;;;;;8.52;1.75;;;17.40;99.90;;;;;;4971356;28;20023;-58
2022/08/20 07:20:22;;;;;;;7.57;1.35;;;17.40;99.90;;;;;;4975635;28;20426;-58
2022/08/20 07:22:48;;;;;;;5.38;0.80;;;17.40;99.90;;;;;;4974079;28;20027;-58
2022/08/20 07:25:16;;;;;;;7.55;0.95;;;17.20;99.90;;;;;;4962436;28;20546;-58
2022/08/20 07:27:43;;;;;;;7.68;1.42;;;17.10;99.90;;;;;;4967592;28;20041;-58
2022/08/20 07:32:58;;;;;;;7.65;1.13;;;17.00;99.90;;;;;;4972462;28;20086;-58
2022/08/20 07:35:23;;;;;;;7.75;1.83;;;16.90;99.90;;;;;;4970609;28;20043;-58
2022/08/20 07:37:50;;;;;;;12.68;2.22;;;17.00;99.90;;;;;;4966220;28;20031;-58
2022/08/20 07:40:23;;;;;;;9.63;1.60;;;17.10;99.90;;;;;;4964666;28;20035;-58
2022/08/20 07:42:49;;;;;;;6.40;1.23;;;17.10;99.90;;;;;;4968187;28;20031;-58
2022/08/20 07:45:17;;;;;;;8.25;1.60;;;17.20;99.90;;;;;;4969832;28;20023;-58
2022/08/20 07:47:44;;;;;;;5.18;0.77;;;17.20;99.90;;;;;;4968805;28;20031;-58
2022/08/20 07:50:14;;;;;;;7.60;1.20;;;17.20;99.90;;;;;;4969228;28;20027;-58
2022/08/20 07:52:40;;;;;;;6.20;1.13;;;17.40;99.90;;;;;;4967866;28;20042;-58
2022/08/20 07:55:09;;;;;;;8.20;1.65;;;17.50;99.90;;;;;;4970175;28;20039;-58
2022/08/20 07:57:36;;;;;;;8.90;1.10;;;17.50;99.90;;;;;;4958727;28;20041;-58
2022/08/20 08:00:04;;;;;;;11.85;1.73;;;17.60;99.90;;;;;;4968974;28;20038;-58
2022/08/20 08:02:30;;;;;;;10.48;1.77;;;17.60;99.90;;;;;;4970314;28;20566;-59
2022/08/20 08:04:56;;;;;;;4.28;1.02;;;17.70;99.90;;;;;;4970424;28;20133;-59
2022/08/20 08:07:22;;;;;;;5.60;1.40;;;17.60;99.90;;;;;;4970599;28;20056;-58
2022/08/20 08:09:49;;;;;;;7.05;1.20;;;17.70;99.90;;;;;;4968400;28;20043;-59
2022/08/20 08:12:15;;;;;;;9.20;1.67;;;17.80;99.90;;;;;;4969181;28;20026;-57
2022/08/20 08:14:43;;;;;;;4.88;0.90;;;17.90;99.90;;;;;;4967825;28;20049;-58
2022/08/20 08:17:10;;;;;;;5.53;0.80;;;18.00;99.90;;;;;;4970072;28;20027;-59
2022/08/20 08:19:41;;;;;;;6.30;0.63;;;18.10;99.90;;;;;;4968304;28;20124;-59
2022/08/20 08:22:12;;;;;;;4.03;0.80;;;18.10;99.90;;;;;;4969809;28;20376;-59
2022/08/20 08:24:39;;;;;;;3.55;0.70;;;18.30;99.90;;;;;;4967366;28;20034;-59
2022/08/20 08:27:06;;;;;;;4.88;0.52;;;18.30;99.90;;;;;;4969705;28;20039;-59
2022/08/20 08:29:33;;;;;;;4.85;0.80;;;18.30;99.90;;;;;;4967307;28;20042;-58
2022/08/20 08:32:00;;;;;;;4.18;0.60;;;18.40;99.90;;;;;;4969468;28;20107;-58
2022/08/20 08:34:26;;;;;;;7.15;1.27;;;18.40;99.90;;;;;;4967949;28;20051;-58
2022/08/20 08:36:52;;;;;;;3.83;1.40;;;18.50;99.90;;;;;;4968359;28;20038;-59
2022/08/20 08:39:18;;;;;;;4.00;0.82;;;18.50;99.90;;;;;;4965090;28;20379;-59
2022/08/20 08:41:50;;;;;;;4.00;0.70;;;18.70;99.90;;;;;;4966997;28;20027;-57
2022/08/20 08:44:26;;;;;;;6.70;0.98;;;18.90;99.90;;;;;;4967256;28;20043;-58
2022/08/20 08:47:01;;;;;;;2.80;0.70;;;18.90;99.90;;;;;;4970920;28;20053;-57
2022/08/20 08:49:34;;;;;;;4.50;0.90;;;19.00;99.90;;;;;;4972496;28;20526;-58
2022/08/20 08:52:10;;;;;;;3.25;0.70;;;19.20;99.90;;;;;;4971686;28;20033;-58
2022/08/20 08:54:40;;;;;;;3.08;0.65;;;19.40;99.90;;;;;;4971264;28;20043;-58
2022/08/20 08:57:08;;;;;;;2.97;0.57;;;19.60;99.90;;;;;;4971617;28;20069;-59
2022/08/20 08:59:33;;;;;;;2.25;0.52;;;19.60;99.90;;;;;;4967022;28;20474;-58
2022/08/20 09:02:01;;;;;;;3.97;0.82;;;19.70;99.90;;;;;;4971991;28;20118;-58
2022/08/20 09:04:37;;;;;;;3.83;0.80;;;19.70;99.90;;;;;;4972368;28;20109;-58
2022/08/20 09:07:09;;;;;;;4.45;0.60;;;19.70;99.90;;;;;;4969509;28;20023;-58
2022/08/20 09:09:37;;;;;;;3.50;0.60;;;20.00;99.90;;;;;;4968588;28;20034;-59
2022/08/20 09:12:19;;;;;;;4.38;0.95;;;20.20;99.90;;;;;;4967660;28;20133;-60
2022/08/20 09:14:49;;;;;;;2.45;0.70;;;20.20;99.90;;;;;;4969021;28;20054;-59
2022/08/20 09:17:18;;;;;;;3.15;0.90;;;20.30;99.90;;;;;;4970788;28;20118;-58
2022/08/20 09:19:44;;;;;;;3.20;0.70;;;20.20;99.90;;;;;;4972370;28;20442;-59
2022/08/20 09:22:15;;;;;;;4.95;0.70;;;20.40;99.90;;;;;;4972597;28;20090;-59
2022/08/20 09:24:41;;;;;;;2.90;0.52;;;20.50;99.90;;;;;;4969688;28;20027;-58
2022/08/20 09:27:07;;;;;;;4.25;0.60;;;20.60;99.90;;;;;;4974538;28;20034;-58
2022/08/20 09:29:33;;;;;;;5.78;1.00;;;20.70;99.90;;;;;;4969943;28;20073;-59
2022/08/20 09:32:04;;;;;;;5.70;0.73;;;20.80;99.90;;;;;;4972194;28;20122;-59
2022/08/20 09:34:30;;;;;;;4.10;0.85;;;20.70;99.90;;;;;;4970414;28;20093;-59
2022/08/20 09:36:55;;;;;;;4.75;0.90;;;20.60;99.90;;;;;;4969781;28;20030;-58
2022/08/20 09:39:21;;;;;;;3.20;0.68;;;20.50;99.90;;;;;;4971242;28;20091;-58
2022/08/20 09:41:46;;;;;;;3.70;0.80;;;20.20;99.90;;;;;;4968834;28;20032;-58
2022/08/20 09:44:12;;;;;;;2.65;0.60;;;20.20;99.90;;;;;;4972426;28;20031;-59
2022/08/20 09:46:38;;;;;;;3.20;0.70;;;20.20;99.90;;;;;;4970052;28;20030;-59
2022/08/20 09:49:03;;;;;;;3.95;0.90;;;20.30;99.90;;;;;;4971695;28;20457;-59
2022/08/20 09:51:30;;;;;;;6.38;0.88;;;20.40;99.90;;;;;;4972596;28;20059;-58
2022/08/20 09:53:56;;;;;;;5.78;0.90;;;20.50;99.90;;;;;;4968051;28;20470;-61
2022/08/20 09:56:21;;;;;;;4.72;0.80;;;20.60;99.90;;;;;;4971691;28;20042;-59
2022/08/20 09:58:50;;;;;;;3.53;0.70;;;20.50;99.90;;;;;;4965834;28;20035;-58
2022/08/20 10:01:18;;;;;;;2.67;1.15;;;20.60;99.90;;;;;;4971335;28;20041;-58
2022/08/20 10:03:47;;;;;;;4.40;0.57;;;20.90;99.90;;;;;;4970173;28;20398;-58
2022/08/20 10:06:15;;;;;;;4.43;0.60;;;21.20;99.90;;;;;;4968522;28;20027;-58
2022/08/20 10:08:41;;;;;;;5.05;0.57;;;21.70;99.90;;;;;;4970080;28;20057;-58
2022/08/20 10:11:07;;;;;;;3.92;0.85;;;21.70;99.90;;;;;;4969322;28;20041;-58
2022/08/20 10:13:32;;;;;;;6.07;0.80;;;21.80;99.90;;;;;;4970329;28;20114;-58
2022/08/20 10:15:58;;;;;;;5.40;0.85;;;21.50;99.90;;;;;;4967359;28;20446;-59
2022/08/20 10:18:24;;;;;;;4.60;0.90;;;21.70;99.90;;;;;;4970589;28;20446;-58
2022/08/20 10:20:49;;;;;;;5.70;0.77;;;21.80;99.90;;;;;;4966601;28;20031;-58
2022/08/20 10:23:15;;;;;;;7.25;0.82;;;21.80;99.90;;;;;;4975162;28;20023;-58
2022/08/20 10:25:42;;;;;;;4.85;0.80;;;21.80;99.90;;;;;;4973134;28;20034;-61
2022/08/20 10:28:07;;;;;;;2.72;0.75;;;21.80;99.90;;;;;;4969284;28;20399;-58
2022/08/20 10:30:34;;;;;;;4.82;0.70;;;21.70;99.90;;;;;;4968865;28;20042;-58
2022/08/20 10:32:59;;;;;;;1.85;0.60;;;21.50;99.90;;;;;;4971652;28;20050;-58
2022/08/20 10:35:25;;;;;;;4.15;0.70;;;21.80;99.90;;;;;;4970406;28;20038;-57
2022/08/20 10:37:51;;;;;;;4.68;0.88;;;21.60;99.90;;;;;;4967769;28;20572;-59
2022/08/20 10:40:17;;;;;;;2.17;0.57;;;21.90;99.90;;;;;;4967182;28;20173;-59
2022/08/20 10:42:43;;;;;;;3.70;0.70;;;22.00;99.90;;;;;;4965080;28;20027;-59
2022/08/20 10:45:14;;;;;;;2.95;0.45;;;22.00;99.90;;;;;;4971918;28;20533;-58
2022/08/20 10:47:40;;;;;;;3.70;0.50;;;22.20;99.90;;;;;;4967957;28;20031;-58
2022/08/20 10:50:10;;;;;;;5.93;0.95;;;22.30;99.90;;;;;;4969270;28;20031;-58
2022/08/20 10:52:36;;;;;;;4.20;0.77;;;22.40;99.90;;;;;;4968543;28;20019;-58
2022/08/20 10:55:03;;;;;;;5.95;1.13;;;22.60;99.90;;;;;;4970443;28;20486;-57
2022/08/20 10:57:29;;;;;;;5.60;0.60;;;22.50;99.90;;;;;;4967291;28;20027;-57
2022/08/20 10:59:57;;;;;;;4.03;0.68;;;22.60;99.90;;;;;;4969201;28;20041;-58
2022/08/20 11:02:24;;;;;;;4.72;0.90;;;22.50;99.90;;;;;;4970517;28;20398;-58
2022/08/20 11:04:51;;;;;;;4.68;0.68;;;22.40;99.90;;;;;;4966569;28;20035;-58
2022/08/20 11:07:20;;;;;;;2.40;0.68;;;22.60;99.90;;;;;;4970946;28;20081;-58
2022/08/20 11:09:47;;;;;;;3.53;0.98;;;22.60;99.90;;;;;;4965560;28;20037;-57
2022/08/20 11:12:14;;;;;;;9.25;1.02;;;22.50;99.90;;;;;;4969962;28;20494;-59
2022/08/20 11:14:40;;;;;;;6.50;1.00;;;22.20;99.90;;;;;;4969201;28;20043;-58
2022/08/20 11:17:07;;;;;;;2.97;0.80;;;22.00;99.90;;;;;;4969972;28;20403;-58
2022/08/20 11:19:37;;;;;;;9.15;1.10;;;22.10;99.90;;;;;;4969015;28;20390;-58
2022/08/20 11:22:02;;;;;;;4.28;1.13;;;22.10;99.90;;;;;;4968938;28;20169;-57
2022/08/20 11:24:28;;;;;;;6.20;1.48;;;22.70;99.90;;;;;;4970250;28;20155;-59
2022/08/20 11:26:54;;;;;;;3.17;1.15;;;22.90;99.90;;;;;;4967621;28;20439;-59
2022/08/20 11:29:21;;;;;;;5.72;0.93;;;22.80;99.90;;;;;;4970528;28;20031;-58
2022/08/20 11:31:47;;;;;;;9.15;1.13;;;22.50;99.90;;;;;;4967184;28;20489;-58
2022/08/20 11:34:13;;;;;;;9.07;1.30;;;22.50;99.90;;;;;;4970162;28;20055;-58
2022/08/20 11:36:39;;;;;;;4.68;0.98;;;22.40;99.90;;;;;;4968681;28;20497;-58
2022/08/20 11:39:04;;;;;;;8.30;1.13;;;22.40;99.90;;;;;;4964339;28;20117;-57
2022/08/20 11:41:30;;;;;;;7.78;1.50;;;22.30;99.90;;;;;;4969553;28;20226;-57
2022/08/20 11:43:56;;;;;;;4.20;1.05;;;22.00;99.90;;;;;;4968363;28;20023;-57
2022/08/20 11:46:21;;;;;;;5.47;1.55;;;21.90;99.90;;;;;;4969369;28;20474;-58
2022/08/20 11:48:47;;;;;;;5.60;1.08;;;22.10;99.90;;;;;;4968227;28;20034;-59
2022/08/20 11:51:12;;;;;;;3.30;1.10;;;22.00;99.90;;;;;;4970043;28;20026;-56
2022/08/20 11:53:38;;;;;;;7.25;0.90;;;22.20;99.90;;;;;;4964377;28;20112;-58
2022/08/20 11:56:04;;;;;;;5.05;1.23;;;22.30;99.90;;;;;;4969355;28;20502;-57
2022/08/20 11:58:29;;;;;;;6.30;0.82;;;22.90;99.90;;;;;;4967938;28;20026;-58
2022/08/20 12:00:55;;;;;;;5.63;1.23;;;23.40;99.90;;;;;;4968314;28;20030;-58
2022/08/20 12:03:20;;;;;;;7.95;1.23;;;23.50;99.90;;;;;;4969349;28;20031;-58
2022/08/20 12:05:46;;;;;;;3.40;0.80;;;23.90;99.90;;;;;;4965904;28;20155;-58
2022/08/20 12:08:13;;;;;;;6.78;1.00;;;23.70;99.90;;;;;;4971751;28;20029;-57
2022/08/20 12:10:39;;;;;;;6.00;1.00;;;23.50;99.90;;;;;;4966043;28;20034;-58
2022/08/20 12:13:07;;;;;;;5.05;1.00;;;23.90;99.90;;;;;;4969200;28;20081;-57
2022/08/20 12:15:36;;;;;;;9.32;1.40;;;23.80;99.90;;;;;;4968493;28;20157;-58
2022/08/20 12:18:06;;;;;;;11.10;1.13;;;24.00;99.90;;;;;;4974223;28;20066;-57
2022/08/20 12:20:32;;;;;;;4.82;1.00;;;24.70;99.90;;;;;;4972517;28;20058;-58
2022/08/20 12:22:58;;;;;;;4.43;1.15;;;24.70;99.90;;;;;;4974372;28;20482;-58
2022/08/20 12:25:25;;;;;;;8.15;0.80;;;24.90;99.90;;;;;;4974568;28;20031;-58
2022/08/20 12:27:50;;;;;;;6.65;1.00;;;25.20;99.90;;;;;;4972074;28;20022;-58
2022/08/20 12:30:20;;;;;;;5.82;1.25;;;24.50;99.90;;;;;;4973286;28;20533;-58
2022/08/20 12:32:46;;;;;;;8.63;1.40;;;24.70;99.90;;;;;;4972389;28;20054;-56
2022/08/20 12:35:14;;;;;;;6.65;1.20;;;25.20;99.90;;;;;;4972694;28;20042;-57
2022/08/20 12:37:41;;;;;;;4.68;0.85;;;25.00;99.90;;;;;;4971888;28;20023;-56
2022/08/20 12:40:12;;;;;;;8.57;1.70;;;25.20;99.50;;;;;;4974031;28;20029;-57
2022/08/20 12:42:38;;;;;;;;;;;25.20;99.90;;;;;;4966053;28;20023;-57
2022/08/20 12:45:05;;;;;;;5.32;0.90;;;25.40;99.90;;;;;;4973732;28;19914;-58
2022/08/20 12:47:34;;;;;;;5.63;1.33;;;25.10;99.90;;;;;;4973014;28;20058;-58
2022/08/20 12:50:07;;;;;;;11.25;1.45;;;25.00;99.90;;;;;;4973663;28;20030;-58
2022/08/20 12:52:33;;;;;;;5.35;1.15;;;25.00;99.90;;;;;;4972191;28;20154;-58
2022/08/20 12:54:59;;;;;;;3.25;0.90;;;25.40;98.20;;;;;;4974001;28;20071;-57
2022/08/20 12:57:29;;;;;;;6.78;0.90;;;25.60;97.10;;;;;;4973302;28;20023;-57